ěÝzenÝ letovÚho provozu ╚eskÚ republiky
Letiste: LKPD Aktualizace: 27.10.2020 01:30:27  UTC
 METAR LKPD 27.10. 01:30 ...
METAR LKPD 270130Z 27011KT 5000 -DZ SCT006 OVC018 09/09 Q1009 RMK WHT=
 TAF LKPD 26.10. 23:00 ...
TAF LKPD 262300Z 2700/2800 27006KT 9999 BKN030      TEMPO 2700/2713 6000 RA BKN010 OVC020      PROB40 TEMPO 2700/2711 3000 RA BR BKN005 OVC012      TEMPO 2714/2716 BKN020      BECMG 2717/2719 19004KT CAVOK      TEMPO 2721/2800 5000 BR=